KVEL/VEL METAR and TAF weather

Enter ICAO airport designator
Station Type Date Time Source
KVEL METAR 2018/12/13 19:53 UTC NOAA

KVEL 131953Z AUTO 00000KT 10SM CLR M02/M12 A3041 RMK AO2 SLP333 T10171117


Station Type Date Time Source
KVEL Decoded METAR 2018/12/13 19:53 UTC NOAA

VERNAL AIRPORT, UT, United States (KVEL) 40-26N 109-30W 1604M
Dec 13, 2018 - 02:53 PM EST / 2018.12.13 1953 UTC
Wind: Calm:0
Visibility: 10 mile(s):0
Sky conditions: clear
Temperature: 28.9 F (-1.7 C)
Dew Point: 10.9 F (-11.7 C)
Relative Humidity: 46%
Pressure (altimeter): 30.41 in. Hg (1029 hPa)
ob: KVEL 131953Z AUTO 00000KT 10SM CLR M02/M12 A3041 RMK AO2 SLP333 T10171117
cycle: 20

Station Type Date Time Source
KVEL TAF 2018/12/13 18:28 UTC NOAA

TAF KVEL 131726Z 1318/1418 VRB05KT P6SM SKC


Example: see airport list